Time;durP1;ratioP1;P1;durP2;ratioP2;P2;SDS_P1;SDS_P2;PMS_P1;PMS_P2;Temp;Humidity;BMP_temperature;BMP_pressure;BME280_temperature;BME280_humidity;BME280_pressure;Samples;Min_cycle;Max_cycle;Signal;HPM_P1;HPM_P2
2023/02/01 16:16:13;;;;;;;4.43;1.42;;;5.10;99.90;;;;;;5103874;27;20336;-66
2023/02/01 16:18:42;;;;;;;4.82;1.23;;;5.00;99.90;;;;;;5088071;28;20127;-64
2023/02/01 16:21:08;;;;;;;3.70;1.40;;;5.10;99.90;;;;;;5086671;28;20020;-63
2023/02/01 16:23:35;;;;;;;5.65;1.40;;;5.10;99.90;;;;;;5087824;28;20052;-63
2023/02/01 16:26:01;;;;;;;4.72;1.45;;;5.30;99.90;;;;;;5086097;28;20030;-64
2023/02/01 16:28:26;;;;;;;4.53;1.50;;;5.30;99.90;;;;;;5082787;28;20542;-63
2023/02/01 16:30:52;;;;;;;3.85;1.70;;;5.40;99.90;;;;;;5072420;28;20012;-64
2023/02/01 16:33:21;;;;;;;7.13;1.85;;;5.50;99.90;;;;;;5067337;28;20416;-64
2023/02/01 16:35:48;;;;;;;6.25;1.67;;;5.50;99.90;;;;;;5066913;28;20127;-63
2023/02/01 16:38:18;;;;;;;6.18;2.05;;;5.60;99.90;;;;;;5067253;28;20032;-63
2023/02/01 16:40:45;;;;;;;11.48;3.20;;;5.70;99.90;;;;;;5081986;28;20020;-63
2023/02/01 16:43:21;;;;;;;18.33;3.25;;;5.70;99.90;;;;;;5087308;28;20394;-64
2023/02/01 16:45:48;;;;;;;10.80;3.53;;;5.80;99.90;;;;;;5086220;28;20024;-64
2023/02/01 16:48:35;;;;;;;10.85;3.00;;;5.90;99.90;;;;;;5085664;28;20484;-66
2023/02/01 16:51:06;;;;;;;10.25;2.40;;;6.00;99.90;;;;;;5087602;28;20051;-66
2023/02/01 16:53:32;;;;;;;10.68;3.15;;;6.10;99.90;;;;;;5067731;28;20017;-65
2023/02/01 16:55:58;;;;;;;12.25;3.05;;;6.20;99.90;;;;;;5066320;28;20033;-64
2023/02/01 16:58:25;;;;;;;12.00;3.50;;;6.30;99.90;;;;;;5086407;28;20016;-65
2023/02/01 17:00:52;;;;;;;17.17;3.15;;;6.40;99.90;;;;;;5102410;28;20114;-65
2023/02/01 17:03:19;;;;;;;11.13;2.90;;;6.40;99.90;;;;;;5085925;28;20032;-67
2023/02/01 17:05:50;;;;;;;15.07;3.20;;;6.50;99.90;;;;;;5086373;28;20544;-66
2023/02/01 17:08:21;;;;;;;11.65;3.78;;;6.50;99.90;;;;;;5080318;28;20056;-67
2023/02/01 17:10:46;;;;;;;5.85;1.55;;;6.50;99.90;;;;;;5066370;28;20502;-69
2023/02/01 17:13:14;;;;;;;2.05;1.27;;;6.20;99.90;;;;;;5086220;28;20099;-67
2023/02/01 17:15:41;;;;;;;5.97;1.88;;;5.90;99.90;;;;;;5087294;28;20127;-68
2023/02/01 17:18:13;;;;;;;6.82;1.75;;;5.80;99.90;;;;;;5086759;28;20021;-68
2023/02/01 17:20:39;;;;;;;5.88;1.80;;;5.80;99.90;;;;;;5087450;28;20068;-68
2023/02/01 17:23:05;;;;;;;8.13;1.77;;;5.80;99.90;;;;;;5103034;28;20410;-66
2023/02/01 17:25:31;;;;;;;9.88;2.75;;;5.70;99.90;;;;;;5084694;28;20035;-67
2023/02/01 17:27:56;;;;;;;8.90;2.22;;;5.70;99.90;;;;;;5071349;28;20033;-67
2023/02/01 17:30:22;;;;;;;7.53;3.40;;;5.70;99.90;;;;;;5073147;28;20020;-67
2023/02/01 17:32:48;;;;;;;7.03;2.33;;;5.60;99.90;;;;;;5073213;28;20017;-66
2023/02/01 17:35:25;;;;;;;11.77;2.10;;;5.60;99.90;;;;;;5072649;28;20051;-69
2023/02/01 17:37:52;;;;;;;7.80;2.50;;;5.50;99.90;;;;;;5072354;28;20472;-70
2023/02/01 17:40:18;;;;;;;13.02;3.70;;;5.50;99.90;;;;;;5072162;28;20035;-68
2023/02/01 17:42:44;;;;;;;8.60;2.70;;;5.50;99.90;;;;;;5073425;28;20103;-69
2023/02/01 17:45:31;;;;;;;16.05;2.97;;;5.50;99.90;;;;;;5070703;28;20029;-69
2023/02/01 17:47:57;;;;;;;12.50;3.17;;;5.60;99.90;;;;;;5072955;28;20429;-69
2023/02/01 17:50:27;;;;;;;13.40;3.17;;;5.60;99.90;;;;;;5071313;28;20540;-68
2023/02/01 17:52:52;;;;;;;10.65;3.30;;;5.70;99.90;;;;;;5088421;28;20017;-69
2023/02/01 17:55:21;;;;;;;14.65;3.40;;;5.70;99.90;;;;;;5072791;28;20393;-71
2023/02/01 17:57:47;;;;;;;12.80;3.40;;;5.70;99.90;;;;;;5073232;28;20017;-67
2023/02/01 18:00:14;;;;;;;10.43;3.42;;;5.80;99.90;;;;;;5071168;28;20515;-66
2023/02/01 18:02:40;;;;;;;12.85;3.83;;;5.90;99.90;;;;;;5072061;28;20020;-71
2023/02/01 18:05:22;;;;;;;11.00;3.72;;;6.00;99.90;;;;;;5072436;28;20040;-68
2023/02/01 18:07:47;;;;;;;14.68;3.50;;;6.00;99.90;;;;;;5071526;28;20108;-68
2023/02/01 18:10:13;;;;;;;16.55;4.07;;;6.20;99.90;;;;;;5072308;28;20542;-73
2023/02/01 18:12:40;;;;;;;18.98;4.13;;;6.20;99.90;;;;;;5073408;28;20028;-69
2023/02/01 18:15:12;;;;;;;15.50;3.92;;;6.30;99.90;;;;;;5072005;28;20704;-66
2023/02/01 18:17:38;;;;;;;13.35;4.40;;;6.40;99.90;;;;;;5072987;28;20023;-68
2023/02/01 18:20:04;;;;;;;11.63;3.40;;;6.50;99.90;;;;;;5072207;28;20028;-69
2023/02/01 18:22:30;;;;;;;15.80;3.50;;;6.60;99.90;;;;;;5068377;28;20107;-67
2023/02/01 18:24:55;;;;;;;11.10;3.08;;;6.70;99.90;;;;;;5086644;28;20039;-71
2023/02/01 18:27:22;;;;;;;18.65;3.85;;;6.80;99.90;;;;;;5070948;28;20020;-71
2023/02/01 18:29:48;;;;;;;17.38;3.53;;;6.80;99.90;;;;;;5071571;28;20083;-70
2023/02/01 18:32:14;;;;;;;14.05;3.50;;;6.70;99.90;;;;;;5071008;28;20048;-69
2023/02/01 18:34:40;;;;;;;16.70;4.22;;;6.70;99.90;;;;;;5070481;28;20040;-67
2023/02/01 18:37:05;;;;;;;15.05;2.70;;;6.60;99.90;;;;;;5087104;28;20031;-68
2023/02/01 18:39:31;;;;;;;10.52;2.20;;;6.60;99.90;;;;;;5069924;28;20039;-69
2023/02/01 18:41:58;;;;;;;12.65;2.45;;;6.50;99.90;;;;;;5070277;28;20113;-72
2023/02/01 18:44:23;;;;;;;12.10;2.78;;;6.40;99.90;;;;;;5054660;28;20013;-73
2023/02/01 18:46:49;;;;;;;6.95;2.00;;;6.40;99.90;;;;;;5054544;28;20370;-68
2023/02/01 18:49:16;;;;;;;5.15;2.17;;;6.30;99.90;;;;;;5071269;28;20448;-68
2023/02/01 18:51:43;;;;;;;7.50;2.10;;;6.30;99.90;;;;;;5072244;28;20544;-68
2023/02/01 18:54:10;;;;;;;6.97;1.80;;;6.30;99.90;;;;;;5071917;28;20051;-67
2023/02/01 18:56:36;;;;;;;11.15;2.55;;;6.30;99.90;;;;;;5069125;28;20465;-67
2023/02/01 18:59:02;;;;;;;5.03;1.98;;;6.30;99.90;;;;;;5072443;28;20096;-66
2023/02/01 19:01:28;;;;;;;10.57;1.90;;;6.30;99.90;;;;;;5086927;28;20028;-67
2023/02/01 19:03:54;;;;;;;6.43;2.05;;;6.20;99.90;;;;;;5070143;28;20078;-67
2023/02/01 19:06:19;;;;;;;7.00;1.80;;;6.20;99.90;;;;;;5072075;28;20388;-67
2023/02/01 19:08:46;;;;;;;9.95;1.88;;;6.20;99.90;;;;;;5087901;28;20017;-68
2023/02/01 19:11:12;;;;;;;8.68;2.08;;;6.10;99.90;;;;;;5087063;28;20524;-67
2023/02/01 19:13:38;;;;;;;12.32;2.47;;;6.10;99.90;;;;;;5072340;28;20107;-70
2023/02/01 19:16:12;;;;;;;12.65;2.90;;;6.20;99.90;;;;;;5087184;28;20875;-69
2023/02/01 19:18:38;;;;;;;9.68;1.85;;;6.20;99.90;;;;;;5087722;28;20387;-70
2023/02/01 19:21:09;;;;;;;6.00;2.15;;;6.20;99.90;;;;;;5087502;28;20111;-69
2023/02/01 19:23:37;;;;;;;8.13;2.42;;;6.20;99.90;;;;;;5070944;28;20104;-71
2023/02/01 19:26:03;;;;;;;4.53;1.40;;;6.20;99.90;;;;;;5072113;28;20021;-71
2023/02/01 19:28:28;;;;;;;9.68;2.10;;;6.20;99.90;;;;;;5087099;28;20036;-69
2023/02/01 19:31:02;;;;;;;5.78;1.70;;;6.20;99.90;;;;;;5071774;28;20487;-68
2023/02/01 19:33:28;;;;;;;7.63;1.60;;;6.20;99.90;;;;;;5071921;28;20024;-68
2023/02/01 19:35:59;;;;;;;9.57;2.10;;;6.30;99.90;;;;;;5070272;28;20051;-68
2023/02/01 19:38:24;;;;;;;6.73;2.67;;;6.30;99.90;;;;;;5070751;28;20009;-70
2023/02/01 19:40:50;;;;;;;6.82;2.05;;;6.30;99.90;;;;;;5070056;28;20024;-68
2023/02/01 19:43:15;;;;;;;7.80;1.90;;;6.30;99.90;;;;;;5071581;28;20020;-67
2023/02/01 19:45:42;;;;;;;4.45;1.65;;;6.30;99.90;;;;;;5064862;28;20036;-67
2023/02/01 19:48:11;;;;;;;5.82;2.00;;;6.40;99.90;;;;;;5051746;28;20021;-69
2023/02/01 19:50:38;;;;;;;7.40;2.20;;;6.40;99.90;;;;;;5067135;28;20071;-69
2023/02/01 19:53:04;;;;;;;4.47;1.75;;;6.30;99.90;;;;;;5066212;28;20041;-68
2023/02/01 19:55:29;;;;;;;4.10;1.70;;;6.30;99.90;;;;;;5071703;28;20063;-68
2023/02/01 19:57:55;;;;;;;7.05;2.20;;;6.30;99.90;;;;;;5071694;28;20468;-68
2023/02/01 20:00:21;;;;;;;8.70;2.15;;;6.30;99.90;;;;;;5070811;28;20113;-69
2023/02/01 20:02:47;;;;;;;8.55;2.50;;;6.20;99.90;;;;;;5069335;28;20356;-69
2023/02/01 20:05:13;;;;;;;12.60;2.72;;;6.10;99.90;;;;;;5071442;28;20472;-69
2023/02/01 20:07:38;;;;;;;9.48;2.72;;;6.00;99.90;;;;;;5070972;28;20032;-69
2023/02/01 20:10:06;;;;;;;11.40;2.72;;;6.00;99.90;;;;;;5071674;28;20131;-68
2023/02/01 20:12:32;;;;;;;5.68;1.90;;;5.90;99.90;;;;;;5071658;28;20074;-69
2023/02/01 20:14:57;;;;;;;3.42;1.17;;;5.70;99.90;;;;;;5071314;28;20052;-69
2023/02/01 20:17:23;;;;;;;8.73;1.40;;;5.60;99.90;;;;;;5070195;28;20035;-68
2023/02/01 20:19:48;;;;;;;4.28;1.52;;;5.50;99.90;;;;;;5070903;28;20513;-68
2023/02/01 20:22:14;;;;;;;5.35;1.17;;;5.30;99.90;;;;;;5070812;28;20044;-68
